Aérodrome :
LOGIN :

S'inscrire | Disclaimer

   EN    FR    IT 

 










Légende :    VFR   VFR Marginal   IFR   IFR Intensif   IFR Très Intensif
Visi : 
Plafond : 
>= 8 km
>= 3000ft
5 à 8 km
1000 à 3000 ft
1500m à 5 km
500 à 1000 ft
800 à 1500m
200 à 500 ft
< 800m
< 200 ft
Symboles :   Orages  Brouillard  Fortes neiges  Fortes précipitations  Vent > 20 kt
SIGMETs :   Divers  Orages  Givrage  Turbulence  Onde Orograph.  Cendres Volcan.






- Altitude de l'aérodrome : 348 ft
- Code IATA : STN


EGSS - London Stansted

DERNIER METAR :
  • 282150Z AUTO 20013KT 9999 OVC005 11/10 Q1011

METARs EXPIRÉS :
  • 282120Z AUTO 20013KT 9999 OVC005 11/10 Q1011
  • 282050Z AUTO 20014KT 9999 -RA OVC005 11/10 Q1011
  • 282020Z AUTO 21015KT 9999 -RA OVC005 11/10 Q1012
  • 281950Z AUTO 21014KT 9999 OVC005 11/09 Q1012
  • 281920Z AUTO 20014KT 9999 OVC006 10/09 Q1012
  • 281850Z AUTO 20012KT 9999 OVC006 10/09 Q1013 REDZ
  • 281820Z AUTO 19013KT 8000 OVC006 10/09 Q1013
  • 281750Z AUTO 20012KT 9999 OVC007 10/08 Q1013
  • 281720Z AUTO 20012KT 9000 OVC009 10/08 Q1014
  • 281650Z AUTO 20012KT 9999 OVC014 10/07 Q1014

TAF TAF EGSS
Valide du 28 à 18h jusqu'au 01 à 00h UTC


281658Z 2818/2924 20012KT 9999 BKN006
TEMPO 2818/2901 4000 RADZ BKN004
PROB30
TEMPO 2819/2901 1200 DZ BR BKN001
BECMG 2900/2902 BKN012
PROB30
TEMPO 2901/2905 21015G25KT
TEMPO 2904/2919 6000 RA BKN006
PROB40
TEMPO 2905/2909 BKN004
PROB30
TEMPO 2906/2916 3000 +RA RADZ
BECMG 2908/2910 SCT010
BECMG 2912/2915 30010KT
BECMG 2918/2921 21004KT
ATIS : +44 1279 669 325



MET'MAP, la Météo Aéronautique d'un coup d'oeil ! - Copyright ORBIFLY Décembre 2007 - Disclaimer

ORBIFLY MET'MAP TEAM :

Programmation & Développement : Alexandra Zaïnal
Sur une idée originale de : Baudouin d'Aumeries
Soutien technique & logistique : Manuel Goepfert
Assistance : Marc-Olivier Méhu




SOURCES & CREDITS :

   NOAA